createdAt,value
2023-02-15T07:36:21.867Z,8.65
2023-02-15T07:38:49.696Z,8.85
2023-02-15T07:41:18.416Z,8.48
2023-02-15T07:43:47.037Z,8.20
2023-02-15T07:46:16.755Z,8.75
2023-02-15T07:48:45.542Z,8.27
2023-02-15T07:51:15.115Z,8.27
2023-02-15T07:53:44.404Z,8.20
2023-02-15T07:56:13.736Z,8.60
2023-02-15T07:58:53.933Z,8.35
2023-02-15T08:01:23.991Z,8.75
2023-02-15T08:03:52.146Z,9.27
2023-02-15T08:06:20.276Z,9.05
2023-02-15T08:08:49.482Z,9.23
2023-02-15T08:11:33.533Z,9.10
2023-02-15T08:14:04.549Z,8.40
2023-02-15T08:16:36.086Z,8.50
2023-02-15T08:19:06.584Z,6.10
2023-02-15T08:21:36.019Z,9.02
2023-02-15T08:24:06.341Z,8.68
2023-02-15T08:26:34.827Z,8.38
2023-02-15T08:29:03.270Z,8.77
2023-02-15T08:31:31.658Z,7.97
2023-02-15T08:33:59.678Z,8.48
2023-02-15T08:36:29.671Z,8.60
2023-02-15T08:38:59.277Z,9.55
2023-02-15T08:41:30.373Z,9.00
2023-02-15T08:44:00.200Z,9.90
2023-02-15T08:46:30.488Z,9.30
2023-02-15T08:48:58.960Z,9.75
2023-02-15T08:51:29.824Z,9.07
2023-02-15T08:54:00.945Z,9.40
2023-02-15T08:56:32.807Z,8.85
2023-02-15T08:59:05.977Z,8.98
2023-02-15T09:01:36.243Z,9.15
2023-02-15T09:04:06.655Z,9.63
2023-02-15T09:06:35.186Z,9.18
2023-02-15T09:09:04.606Z,9.98
2023-02-15T09:11:37.100Z,9.57
2023-02-15T09:14:08.389Z,9.10
2023-02-15T09:16:40.468Z,7.07
2023-02-15T09:19:21.237Z,9.40
2023-02-15T09:21:51.684Z,9.52
2023-02-15T09:24:20.249Z,9.60
2023-02-15T09:26:50.426Z,9.05
2023-02-15T09:29:19.729Z,9.48
2023-02-15T09:31:49.949Z,9.40
2023-02-15T09:34:19.893Z,9.82
2023-02-15T09:36:48.882Z,10.00
2023-02-15T09:39:19.444Z,9.45
2023-02-15T09:42:26.620Z,9.32
2023-02-15T09:45:18.956Z,9.30
2023-02-15T09:48:22.641Z,9.35
2023-02-15T09:51:04.865Z,9.40
2023-02-15T09:53:46.198Z,9.57
2023-02-15T09:56:21.801Z,9.18
2023-02-15T09:59:01.828Z,10.65
2023-02-15T10:01:35.888Z,9.88
2023-02-15T10:04:18.621Z,9.38
2023-02-15T10:07:02.604Z,10.10
2023-02-15T10:09:44.463Z,10.38
2023-02-15T10:12:36.586Z,7.32
2023-02-15T10:15:21.274Z,9.27
2023-02-15T10:18:11.903Z,9.27
2023-02-15T10:20:45.919Z,9.65
2023-02-15T10:23:31.195Z,9.75
2023-02-15T10:26:08.089Z,9.70
2023-02-15T10:28:45.649Z,9.52
2023-02-15T10:31:25.268Z,9.50
2023-02-15T10:34:13.954Z,9.80
2023-02-15T10:36:58.234Z,10.10
2023-02-15T10:39:33.854Z,10.05
2023-02-15T10:42:13.054Z,9.85
2023-02-15T10:44:53.552Z,9.30
2023-02-15T10:47:39.083Z,10.05
2023-02-15T10:50:29.077Z,10.02
2023-02-15T10:53:08.734Z,11.15
2023-02-15T10:55:49.091Z,10.05
2023-02-15T10:58:27.746Z,10.85
2023-02-15T11:01:06.499Z,10.05
2023-02-15T11:03:54.276Z,10.07
2023-02-15T11:06:24.621Z,11.18
2023-02-15T11:08:57.382Z,9.98
2023-02-15T11:11:29.632Z,10.63
2023-02-15T11:16:31.921Z,10.60
2023-02-15T11:19:08.897Z,10.15
2023-02-15T11:21:41.927Z,10.63
2023-02-15T11:24:13.198Z,10.75
2023-02-15T11:26:45.421Z,11.32
2023-02-15T11:31:46.249Z,11.02
2023-02-15T11:34:22.704Z,10.25
2023-02-15T11:36:54.100Z,10.38
2023-02-15T11:39:24.129Z,7.43
2023-02-15T11:41:55.122Z,10.20
2023-02-15T11:44:27.209Z,11.00
2023-02-15T11:46:55.334Z,11.18
2023-02-15T11:49:29.583Z,10.32
2023-02-15T11:51:58.778Z,11.68
2023-02-15T11:54:31.683Z,10.40
2023-02-15T11:57:05.711Z,9.68
2023-02-15T11:59:37.603Z,10.43
2023-02-15T12:02:16.247Z,11.02
2023-02-15T12:04:51.436Z,11.00
2023-02-15T12:07:26.460Z,10.55
2023-02-15T12:10:01.345Z,11.48
2023-02-15T12:12:30.937Z,10.48
2023-02-15T12:15:00.496Z,11.32
2023-02-15T12:17:30.351Z,10.55
2023-02-15T12:20:03.209Z,11.10
2023-02-15T12:22:33.787Z,11.48
2023-02-15T12:25:04.245Z,12.30
2023-02-15T12:27:34.282Z,10.88
2023-02-15T12:30:07.050Z,11.90
2023-02-15T12:32:37.687Z,12.18
2023-02-15T12:35:16.041Z,10.65
2023-02-15T12:37:55.955Z,11.90
2023-02-15T12:40:26.841Z,11.65
2023-02-15T12:42:54.668Z,11.38
2023-02-15T12:45:26.210Z,10.88
2023-02-15T12:48:18.424Z,11.73
2023-02-15T12:50:54.709Z,12.63
2023-02-15T12:53:31.991Z,11.40
2023-02-15T12:56:01.855Z,11.55
2023-02-15T12:58:31.882Z,11.52
2023-02-15T13:01:13.246Z,12.55
2023-02-15T13:03:57.302Z,11.40
2023-02-15T13:06:27.278Z,11.75
2023-02-15T13:08:57.880Z,12.23
2023-02-15T13:11:34.918Z,11.70
2023-02-15T13:14:04.940Z,12.57
2023-02-15T13:16:36.016Z,11.52
2023-02-15T13:19:08.270Z,12.18
2023-02-15T13:21:41.577Z,10.85
2023-02-15T13:24:20.939Z,10.52
2023-02-15T13:26:49.747Z,11.38
2023-02-15T13:29:23.317Z,11.82
2023-02-15T13:31:53.812Z,11.85
2023-02-15T13:34:26.475Z,11.70
2023-02-15T13:37:03.425Z,11.43
2023-02-15T13:39:40.457Z,11.70
2023-02-15T13:42:22.106Z,12.95
2023-02-15T13:45:05.805Z,12.98
2023-02-15T13:47:43.487Z,12.82
2023-02-15T13:50:28.362Z,13.15
2023-02-15T13:53:04.596Z,12.80
2023-02-15T13:55:42.105Z,13.13
2023-02-15T13:58:36.764Z,12.32
2023-02-15T14:01:11.650Z,12.63
2023-02-15T14:04:05.234Z,12.27
2023-02-15T14:06:57.715Z,13.55
2023-02-15T14:09:42.504Z,14.98
2023-02-15T14:12:28.309Z,12.55
2023-02-15T14:15:16.026Z,14.38
2023-02-15T14:17:56.111Z,13.48
2023-02-15T14:20:29.424Z,14.13
2023-02-15T14:23:11.517Z,15.07
2023-02-15T14:25:44.847Z,14.63
2023-02-15T14:28:18.413Z,13.43
2023-02-15T14:30:50.244Z,15.00
2023-02-15T14:33:34.958Z,14.70
2023-02-15T14:36:07.267Z,13.07
2023-02-15T14:39:01.784Z,10.13
2023-02-15T14:41:38.514Z,14.30
2023-02-15T14:44:17.164Z,14.95
2023-02-15T14:46:52.991Z,13.82
2023-02-15T14:49:27.452Z,13.13
2023-02-15T14:52:08.074Z,13.68
2023-02-15T14:54:55.966Z,13.15
2023-02-15T14:57:27.823Z,13.73
2023-02-15T14:59:59.212Z,14.32
2023-02-15T15:02:30.122Z,10.37
2023-02-15T15:05:03.065Z,15.20
2023-02-15T15:07:39.611Z,15.45
2023-02-15T15:10:29.078Z,14.60
2023-02-15T15:12:58.955Z,15.00
2023-02-15T15:15:46.195Z,14.77
2023-02-15T15:18:46.941Z,15.98
2023-02-15T15:21:56.322Z,16.52
2023-02-15T15:24:53.695Z,15.73
2023-02-15T15:27:53.196Z,15.90
2023-02-15T15:30:51.823Z,15.52
2023-02-15T15:33:48.932Z,16.83
2023-02-15T15:36:55.095Z,16.75
2023-02-15T15:40:08.687Z,16.25
2023-02-15T15:42:53.560Z,15.95
2023-02-15T15:50:56.172Z,16.45
2023-02-15T15:53:27.247Z,16.65
